sensor_id;sensor_type;location;lat;lon;timestamp;temperature;humidity
40816;DHT22;26535;48.788;9.214;2024-01-06T00:01:41;6.00;99.90
40816;DHT22;26535;48.788;9.214;2024-01-06T00:04:06;6.00;99.90
40816;DHT22;26535;48.788;9.214;2024-01-06T00:06:32;6.10;99.90
40816;DHT22;26535;48.788;9.214;2024-01-06T00:08:58;6.10;99.90
40816;DHT22;26535;48.788;9.214;2024-01-06T00:11:23;6.10;99.90
40816;DHT22;26535;48.788;9.214;2024-01-06T00:13:49;6.10;99.90
40816;DHT22;26535;48.788;9.214;2024-01-06T00:16:19;6.10;99.90
40816;DHT22;26535;48.788;9.214;2024-01-06T00:18:46;6.10;99.90
40816;DHT22;26535;48.788;9.214;2024-01-06T00:21:12;6.10;99.90
40816;DHT22;26535;48.788;9.214;2024-01-06T00:23:40;6.10;99.90
40816;DHT22;26535;48.788;9.214;2024-01-06T00:26:12;6.10;99.90
40816;DHT22;26535;48.788;9.214;2024-01-06T00:28:42;6.10;99.90
40816;DHT22;26535;48.788;9.214;2024-01-06T00:31:07;6.00;99.90
40816;DHT22;26535;48.788;9.214;2024-01-06T00:33:33;6.10;99.90
40816;DHT22;26535;48.788;9.214;2024-01-06T00:35:59;6.00;99.90
40816;DHT22;26535;48.788;9.214;2024-01-06T00:38:24;6.00;99.90
40816;DHT22;26535;48.788;9.214;2024-01-06T00:40:51;6.00;99.90
40816;DHT22;26535;48.788;9.214;2024-01-06T00:43:16;6.10;99.90
40816;DHT22;26535;48.788;9.214;2024-01-06T00:45:42;6.10;99.90
40816;DHT22;26535;48.788;9.214;2024-01-06T00:48:08;6.20;99.90
40816;DHT22;26535;48.788;9.214;2024-01-06T00:50:33;6.20;99.90
40816;DHT22;26535;48.788;9.214;2024-01-06T00:52:59;6.10;99.90
40816;DHT22;26535;48.788;9.214;2024-01-06T00:55:25;6.10;99.90
40816;DHT22;26535;48.788;9.214;2024-01-06T00:57:51;6.10;99.90
40816;DHT22;26535;48.788;9.214;2024-01-06T01:00:17;6.10;99.90
40816;DHT22;26535;48.788;9.214;2024-01-06T01:02:42;6.10;99.90
40816;DHT22;26535;48.788;9.214;2024-01-06T01:05:08;6.10;99.90
40816;DHT22;26535;48.788;9.214;2024-01-06T01:07:34;6.10;99.90
40816;DHT22;26535;48.788;9.214;2024-01-06T01:10:00;6.10;99.90
40816;DHT22;26535;48.788;9.214;2024-01-06T01:12:26;6.10;99.90
40816;DHT22;26535;48.788;9.214;2024-01-06T01:14:52;6.10;99.90
40816;DHT22;26535;48.788;9.214;2024-01-06T01:17:18;6.10;99.90
40816;DHT22;26535;48.788;9.214;2024-01-06T01:19:44;6.10;99.90
40816;DHT22;26535;48.788;9.214;2024-01-06T01:22:10;6.20;99.90
40816;DHT22;26535;48.788;9.214;2024-01-06T01:24:36;6.10;99.90
40816;DHT22;26535;48.788;9.214;2024-01-06T01:27:01;6.20;99.90
40816;DHT22;26535;48.788;9.214;2024-01-06T01:29:27;6.20;99.90
40816;DHT22;26535;48.788;9.214;2024-01-06T01:31:53;6.10;99.90
40816;DHT22;26535;48.788;9.214;2024-01-06T01:34:19;6.20;99.90
40816;DHT22;26535;48.788;9.214;2024-01-06T01:36:44;6.10;99.90
40816;DHT22;26535;48.788;9.214;2024-01-06T01:39:10;6.20;99.90
40816;DHT22;26535;48.788;9.214;2024-01-06T01:41:36;6.10;99.90
40816;DHT22;26535;48.788;9.214;2024-01-06T01:44:02;6.20;99.90
40816;DHT22;26535;48.788;9.214;2024-01-06T01:46:29;6.10;99.90
40816;DHT22;26535;48.788;9.214;2024-01-06T01:48:57;6.00;99.90
40816;DHT22;26535;48.788;9.214;2024-01-06T01:51:29;6.10;99.90
40816;DHT22;26535;48.788;9.214;2024-01-06T01:53:58;6.00;99.90
40816;DHT22;26535;48.788;9.214;2024-01-06T01:56:25;6.10;99.90
40816;DHT22;26535;48.788;9.214;2024-01-06T01:58:51;6.10;99.90
40816;DHT22;26535;48.788;9.214;2024-01-06T02:01:17;6.20;99.90
40816;DHT22;26535;48.788;9.214;2024-01-06T02:03:43;6.20;99.90
40816;DHT22;26535;48.788;9.214;2024-01-06T02:06:12;6.10;99.90
40816;DHT22;26535;48.788;9.214;2024-01-06T02:08:38;6.10;99.90
40816;DHT22;26535;48.788;9.214;2024-01-06T02:11:05;6.20;99.90
40816;DHT22;26535;48.788;9.214;2024-01-06T02:13:37;6.10;99.90
40816;DHT22;26535;48.788;9.214;2024-01-06T02:16:04;6.10;99.90
40816;DHT22;26535;48.788;9.214;2024-01-06T02:18:31;6.10;99.90
40816;DHT22;26535;48.788;9.214;2024-01-06T02:20:58;6.00;99.90
40816;DHT22;26535;48.788;9.214;2024-01-06T02:23:25;6.00;99.90
40816;DHT22;26535;48.788;9.214;2024-01-06T02:25:51;6.00;99.90
40816;DHT22;26535;48.788;9.214;2024-01-06T02:28:16;6.00;99.90
40816;DHT22;26535;48.788;9.214;2024-01-06T02:30:43;6.00;99.90
40816;DHT22;26535;48.788;9.214;2024-01-06T02:33:08;6.00;99.90
40816;DHT22;26535;48.788;9.214;2024-01-06T02:35:35;6.00;99.90
40816;DHT22;26535;48.788;9.214;2024-01-06T02:38:00;6.00;99.90
40816;DHT22;26535;48.788;9.214;2024-01-06T02:40:26;6.00;99.90
40816;DHT22;26535;48.788;9.214;2024-01-06T02:42:52;6.10;99.90
40816;DHT22;26535;48.788;9.214;2024-01-06T02:45:17;6.10;99.90
40816;DHT22;26535;48.788;9.214;2024-01-06T02:47:43;6.10;99.90
40816;DHT22;26535;48.788;9.214;2024-01-06T02:50:09;6.00;99.90
40816;DHT22;26535;48.788;9.214;2024-01-06T02:52:34;6.10;99.90
40816;DHT22;26535;48.788;9.214;2024-01-06T02:55:00;6.10;99.90
40816;DHT22;26535;48.788;9.214;2024-01-06T02:57:27;6.00;99.90
40816;DHT22;26535;48.788;9.214;2024-01-06T02:59:53;6.00;99.90
40816;DHT22;26535;48.788;9.214;2024-01-06T03:02:19;6.00;99.90
40816;DHT22;26535;48.788;9.214;2024-01-06T03:04:44;6.00;99.90
40816;DHT22;26535;48.788;9.214;2024-01-06T03:07:10;6.00;99.90
40816;DHT22;26535;48.788;9.214;2024-01-06T03:09:36;6.00;99.90
40816;DHT22;26535;48.788;9.214;2024-01-06T03:12:01;5.90;99.90
40816;DHT22;26535;48.788;9.214;2024-01-06T03:14:27;6.00;99.90
40816;DHT22;26535;48.788;9.214;2024-01-06T03:16:53;5.90;99.90
40816;DHT22;26535;48.788;9.214;2024-01-06T03:19:19;5.90;99.90
40816;DHT22;26535;48.788;9.214;2024-01-06T03:21:45;5.90;99.90
40816;DHT22;26535;48.788;9.214;2024-01-06T03:24:10;5.80;99.90
40816;DHT22;26535;48.788;9.214;2024-01-06T03:26:36;5.80;99.90
40816;DHT22;26535;48.788;9.214;2024-01-06T03:29:02;5.80;99.90
40816;DHT22;26535;48.788;9.214;2024-01-06T03:31:31;5.80;99.90
40816;DHT22;26535;48.788;9.214;2024-01-06T03:33:56;5.80;99.90
40816;DHT22;26535;48.788;9.214;2024-01-06T03:36:22;5.80;99.90
40816;DHT22;26535;48.788;9.214;2024-01-06T03:38:48;5.70;99.90
40816;DHT22;26535;48.788;9.214;2024-01-06T03:41:13;5.70;99.90
40816;DHT22;26535;48.788;9.214;2024-01-06T03:43:39;5.70;99.90
40816;DHT22;26535;48.788;9.214;2024-01-06T03:46:05;5.70;99.90
40816;DHT22;26535;48.788;9.214;2024-01-06T03:48:31;5.70;99.90
40816;DHT22;26535;48.788;9.214;2024-01-06T03:50:59;5.70;99.90
40816;DHT22;26535;48.788;9.214;2024-01-06T03:53:25;5.70;99.90
40816;DHT22;26535;48.788;9.214;2024-01-06T03:55:50;5.70;99.90
40816;DHT22;26535;48.788;9.214;2024-01-06T03:58:17;5.70;99.90
40816;DHT22;26535;48.788;9.214;2024-01-06T04:00:43;5.70;99.90
40816;DHT22;26535;48.788;9.214;2024-01-06T04:03:08;5.70;99.90
40816;DHT22;26535;48.788;9.214;2024-01-06T04:05:34;5.70;99.90
40816;DHT22;26535;48.788;9.214;2024-01-06T04:08:00;5.70;99.90
40816;DHT22;26535;48.788;9.214;2024-01-06T04:10:25;5.60;99.90
40816;DHT22;26535;48.788;9.214;2024-01-06T04:12:51;5.60;99.90
40816;DHT22;26535;48.788;9.214;2024-01-06T04:15:17;5.60;99.90
40816;DHT22;26535;48.788;9.214;2024-01-06T04:17:43;5.60;99.90
40816;DHT22;26535;48.788;9.214;2024-01-06T04:20:09;5.60;99.90
40816;DHT22;26535;48.788;9.214;2024-01-06T04:22:38;5.60;99.90
40816;DHT22;26535;48.788;9.214;2024-01-06T04:25:04;5.60;99.90
40816;DHT22;26535;48.788;9.214;2024-01-06T04:27:29;5.60;99.90
40816;DHT22;26535;48.788;9.214;2024-01-06T04:29:56;5.60;99.90
40816;DHT22;26535;48.788;9.214;2024-01-06T04:32:22;5.60;99.90
40816;DHT22;26535;48.788;9.214;2024-01-06T04:34:48;5.60;99.90
40816;DHT22;26535;48.788;9.214;2024-01-06T04:37:14;5.60;99.90
40816;DHT22;26535;48.788;9.214;2024-01-06T04:39:40;5.60;99.90
40816;DHT22;26535;48.788;9.214;2024-01-06T04:42:06;5.60;99.90
40816;DHT22;26535;48.788;9.214;2024-01-06T04:44:31;5.50;99.90
40816;DHT22;26535;48.788;9.214;2024-01-06T04:46:57;5.50;99.90
40816;DHT22;26535;48.788;9.214;2024-01-06T04:49:23;5.50;99.90
40816;DHT22;26535;48.788;9.214;2024-01-06T04:51:49;5.50;99.90
40816;DHT22;26535;48.788;9.214;2024-01-06T04:54:14;5.50;99.90
40816;DHT22;26535;48.788;9.214;2024-01-06T04:56:40;5.50;99.90
40816;DHT22;26535;48.788;9.214;2024-01-06T04:59:06;5.40;99.90
40816;DHT22;26535;48.788;9.214;2024-01-06T05:01:32;5.40;99.90
40816;DHT22;26535;48.788;9.214;2024-01-06T05:03:57;5.50;99.90
40816;DHT22;26535;48.788;9.214;2024-01-06T05:06:24;5.50;99.90
40816;DHT22;26535;48.788;9.214;2024-01-06T05:08:50;5.50;99.90
40816;DHT22;26535;48.788;9.214;2024-01-06T05:11:16;5.50;99.90
40816;DHT22;26535;48.788;9.214;2024-01-06T05:13:42;5.50;99.90
40816;DHT22;26535;48.788;9.214;2024-01-06T05:16:08;5.50;99.90
40816;DHT22;26535;48.788;9.214;2024-01-06T05:18:34;5.60;99.90
40816;DHT22;26535;48.788;9.214;2024-01-06T05:21:01;5.60;99.90
40816;DHT22;26535;48.788;9.214;2024-01-06T05:23:27;5.60;99.90
40816;DHT22;26535;48.788;9.214;2024-01-06T05:25:53;5.60;99.90
40816;DHT22;26535;48.788;9.214;2024-01-06T05:28:18;5.60;99.90
40816;DHT22;26535;48.788;9.214;2024-01-06T05:30:44;5.60;99.90
40816;DHT22;26535;48.788;9.214;2024-01-06T05:33:11;5.70;99.90
40816;DHT22;26535;48.788;9.214;2024-01-06T05:35:38;5.70;99.90
40816;DHT22;26535;48.788;9.214;2024-01-06T05:38:04;5.70;99.90
40816;DHT22;26535;48.788;9.214;2024-01-06T05:40:30;5.60;99.90
40816;DHT22;26535;48.788;9.214;2024-01-06T05:42:55;5.70;99.90
40816;DHT22;26535;48.788;9.214;2024-01-06T05:45:22;5.60;99.90
40816;DHT22;26535;48.788;9.214;2024-01-06T05:47:48;5.60;99.90
40816;DHT22;26535;48.788;9.214;2024-01-06T05:50:16;5.60;99.90
40816;DHT22;26535;48.788;9.214;2024-01-06T05:52:42;5.60;99.90
40816;DHT22;26535;48.788;9.214;2024-01-06T05:55:08;5.60;99.90
40816;DHT22;26535;48.788;9.214;2024-01-06T05:57:34;5.60;99.90
40816;DHT22;26535;48.788;9.214;2024-01-06T06:00:00;5.60;99.90
40816;DHT22;26535;48.788;9.214;2024-01-06T06:02:26;5.60;99.90
40816;DHT22;26535;48.788;9.214;2024-01-06T06:04:52;5.60;99.90
40816;DHT22;26535;48.788;9.214;2024-01-06T06:07:18;5.50;99.90
40816;DHT22;26535;48.788;9.214;2024-01-06T06:09:44;5.50;99.90
40816;DHT22;26535;48.788;9.214;2024-01-06T06:12:13;5.50;99.90
40816;DHT22;26535;48.788;9.214;2024-01-06T06:14:39;5.50;99.90
40816;DHT22;26535;48.788;9.214;2024-01-06T06:17:05;5.50;99.90
40816;DHT22;26535;48.788;9.214;2024-01-06T06:19:30;5.50;99.90
40816;DHT22;26535;48.788;9.214;2024-01-06T06:21:56;5.50;99.90
40816;DHT22;26535;48.788;9.214;2024-01-06T06:24:22;5.50;99.90
40816;DHT22;26535;48.788;9.214;2024-01-06T06:26:48;5.60;99.90
40816;DHT22;26535;48.788;9.214;2024-01-06T06:29:13;5.60;99.90
40816;DHT22;26535;48.788;9.214;2024-01-06T06:31:39;5.50;99.90
40816;DHT22;26535;48.788;9.214;2024-01-06T06:34:05;5.50;99.90
40816;DHT22;26535;48.788;9.214;2024-01-06T06:36:30;5.60;99.90
40816;DHT22;26535;48.788;9.214;2024-01-06T06:38:56;5.50;99.90
40816;DHT22;26535;48.788;9.214;2024-01-06T06:41:24;5.60;99.90
40816;DHT22;26535;48.788;9.214;2024-01-06T06:43:50;5.60;99.90
40816;DHT22;26535;48.788;9.214;2024-01-06T06:46:19;5.60;99.90
40816;DHT22;26535;48.788;9.214;2024-01-06T06:48:44;5.60;99.90
40816;DHT22;26535;48.788;9.214;2024-01-06T06:51:17;5.60;99.90
40816;DHT22;26535;48.788;9.214;2024-01-06T06:53:43;5.70;99.90
40816;DHT22;26535;48.788;9.214;2024-01-06T06:56:08;5.70;99.90
40816;DHT22;26535;48.788;9.214;2024-01-06T06:58:34;5.80;99.90
40816;DHT22;26535;48.788;9.214;2024-01-06T07:01:00;5.70;99.90
40816;DHT22;26535;48.788;9.214;2024-01-06T07:03:26;5.70;99.90
40816;DHT22;26535;48.788;9.214;2024-01-06T07:05:52;5.70;99.90
40816;DHT22;26535;48.788;9.214;2024-01-06T07:08:18;5.70;99.90
40816;DHT22;26535;48.788;9.214;2024-01-06T07:10:44;5.70;99.90
40816;DHT22;26535;48.788;9.214;2024-01-06T07:13:10;5.70;99.90
40816;DHT22;26535;48.788;9.214;2024-01-06T07:15:35;5.80;99.90
40816;DHT22;26535;48.788;9.214;2024-01-06T07:18:01;5.80;99.90
40816;DHT22;26535;48.788;9.214;2024-01-06T07:20:27;5.70;99.90
40816;DHT22;26535;48.788;9.214;2024-01-06T07:22:53;5.80;99.90
40816;DHT22;26535;48.788;9.214;2024-01-06T07:25:19;5.70;99.90
40816;DHT22;26535;48.788;9.214;2024-01-06T07:27:44;5.80;99.90
40816;DHT22;26535;48.788;9.214;2024-01-06T07:30:10;5.80;99.90
40816;DHT22;26535;48.788;9.214;2024-01-06T07:32:36;5.80;99.90
40816;DHT22;26535;48.788;9.214;2024-01-06T07:35:02;5.80;99.90
40816;DHT22;26535;48.788;9.214;2024-01-06T07:37:30;5.80;99.90
40816;DHT22;26535;48.788;9.214;2024-01-06T07:39:56;5.70;99.90
40816;DHT22;26535;48.788;9.214;2024-01-06T07:42:21;5.70;99.90
40816;DHT22;26535;48.788;9.214;2024-01-06T07:44:47;5.70;99.90
40816;DHT22;26535;48.788;9.214;2024-01-06T07:47:13;5.70;99.90
40816;DHT22;26535;48.788;9.214;2024-01-06T07:49:40;5.70;99.90
40816;DHT22;26535;48.788;9.214;2024-01-06T07:52:05;5.80;99.90
40816;DHT22;26535;48.788;9.214;2024-01-06T07:54:31;5.80;99.90
40816;DHT22;26535;48.788;9.214;2024-01-06T07:56:57;5.90;99.90
40816;DHT22;26535;48.788;9.214;2024-01-06T07:59:22;5.90;99.90
40816;DHT22;26535;48.788;9.214;2024-01-06T08:01:49;5.90;99.90
40816;DHT22;26535;48.788;9.214;2024-01-06T08:04:14;6.00;99.90
40816;DHT22;26535;48.788;9.214;2024-01-06T08:06:40;6.00;99.90
40816;DHT22;26535;48.788;9.214;2024-01-06T08:09:06;6.00;99.90
40816;DHT22;26535;48.788;9.214;2024-01-06T08:11:31;6.00;99.90
40816;DHT22;26535;48.788;9.214;2024-01-06T08:13:57;6.00;99.90
40816;DHT22;26535;48.788;9.214;2024-01-06T08:16:23;6.10;99.90
40816;DHT22;26535;48.788;9.214;2024-01-06T08:18:51;6.10;99.90
40816;DHT22;26535;48.788;9.214;2024-01-06T08:21:17;6.10;99.90
40816;DHT22;26535;48.788;9.214;2024-01-06T08:23:43;6.20;99.90
40816;DHT22;26535;48.788;9.214;2024-01-06T08:26:08;6.20;99.90
40816;DHT22;26535;48.788;9.214;2024-01-06T08:28:34;6.20;99.90
40816;DHT22;26535;48.788;9.214;2024-01-06T08:31:00;6.30;99.90
40816;DHT22;26535;48.788;9.214;2024-01-06T08:33:26;6.30;99.90
40816;DHT22;26535;48.788;9.214;2024-01-06T08:35:51;6.30;99.90
40816;DHT22;26535;48.788;9.214;2024-01-06T08:38:17;6.30;99.90
40816;DHT22;26535;48.788;9.214;2024-01-06T08:40:44;6.30;99.90
40816;DHT22;26535;48.788;9.214;2024-01-06T08:43:13;6.30;99.90
40816;DHT22;26535;48.788;9.214;2024-01-06T08:45:39;6.40;99.90
40816;DHT22;26535;48.788;9.214;2024-01-06T08:48:05;6.50;99.90
40816;DHT22;26535;48.788;9.214;2024-01-06T08:50:31;6.50;99.90
40816;DHT22;26535;48.788;9.214;2024-01-06T08:52:56;6.50;99.90
40816;DHT22;26535;48.788;9.214;2024-01-06T08:55:22;6.50;99.90
40816;DHT22;26535;48.788;9.214;2024-01-06T08:57:49;6.60;99.90
40816;DHT22;26535;48.788;9.214;2024-01-06T09:00:15;6.60;99.90
40816;DHT22;26535;48.788;9.214;2024-01-06T09:02:41;6.80;99.90
40816;DHT22;26535;48.788;9.214;2024-01-06T09:05:07;6.90;99.90
40816;DHT22;26535;48.788;9.214;2024-01-06T09:07:32;7.00;99.90
40816;DHT22;26535;48.788;9.214;2024-01-06T09:09:58;7.00;99.80
40816;DHT22;26535;48.788;9.214;2024-01-06T09:12:27;6.90;99.50
40816;DHT22;26535;48.788;9.214;2024-01-06T09:14:55;6.90;99.70
40816;DHT22;26535;48.788;9.214;2024-01-06T09:17:20;7.00;99.60
40816;DHT22;26535;48.788;9.214;2024-01-06T09:19:48;6.90;99.90
40816;DHT22;26535;48.788;9.214;2024-01-06T09:22:14;6.90;99.90
40816;DHT22;26535;48.788;9.214;2024-01-06T09:24:40;6.90;99.90
40816;DHT22;26535;48.788;9.214;2024-01-06T09:27:06;7.00;99.90
40816;DHT22;26535;48.788;9.214;2024-01-06T09:29:31;7.20;99.80
40816;DHT22;26535;48.788;9.214;2024-01-06T09:31:57;7.10;99.90
40816;DHT22;26535;48.788;9.214;2024-01-06T09:34:23;7.10;99.60
40816;DHT22;26535;48.788;9.214;2024-01-06T09:36:48;7.30;99.70
40816;DHT22;26535;48.788;9.214;2024-01-06T09:39:14;7.30;99.60
40816;DHT22;26535;48.788;9.214;2024-01-06T09:41:40;7.30;99.50
40816;DHT22;26535;48.788;9.214;2024-01-06T09:44:05;7.40;99.50
40816;DHT22;26535;48.788;9.214;2024-01-06T09:46:31;7.40;99.40
40816;DHT22;26535;48.788;9.214;2024-01-06T09:48:58;7.60;99.60
40816;DHT22;26535;48.788;9.214;2024-01-06T09:51:24;7.50;99.60
40816;DHT22;26535;48.788;9.214;2024-01-06T09:54:00;7.50;99.70
40816;DHT22;26535;48.788;9.214;2024-01-06T09:56:27;7.60;99.30
40816;DHT22;26535;48.788;9.214;2024-01-06T09:58:54;7.70;99.10
40816;DHT22;26535;48.788;9.214;2024-01-06T10:01:20;7.70;99.70
40816;DHT22;26535;48.788;9.214;2024-01-06T10:03:46;7.80;99.90
40816;DHT22;26535;48.788;9.214;2024-01-06T10:06:13;7.80;99.00
40816;DHT22;26535;48.788;9.214;2024-01-06T10:08:41;7.80;99.40
40816;DHT22;26535;48.788;9.214;2024-01-06T10:11:07;7.80;99.50
40816;DHT22;26535;48.788;9.214;2024-01-06T10:13:35;7.80;99.90
40816;DHT22;26535;48.788;9.214;2024-01-06T10:16:00;7.90;99.90
40816;DHT22;26535;48.788;9.214;2024-01-06T10:18:27;7.90;99.40
40816;DHT22;26535;48.788;9.214;2024-01-06T10:20:55;7.90;99.90
40816;DHT22;26535;48.788;9.214;2024-01-06T10:23:26;7.70;99.90
40816;DHT22;26535;48.788;9.214;2024-01-06T10:25:59;7.70;99.90
40816;DHT22;26535;48.788;9.214;2024-01-06T10:28:24;7.70;99.90
40816;DHT22;26535;48.788;9.214;2024-01-06T10:30:55;7.80;99.90
40816;DHT22;26535;48.788;9.214;2024-01-06T10:33:22;7.70;99.90
40816;DHT22;26535;48.788;9.214;2024-01-06T10:35:48;7.60;99.90
40816;DHT22;26535;48.788;9.214;2024-01-06T10:38:14;7.60;99.90
40816;DHT22;26535;48.788;9.214;2024-01-06T10:40:59;7.60;99.90
40816;DHT22;26535;48.788;9.214;2024-01-06T10:43:26;7.60;99.90
40816;DHT22;26535;48.788;9.214;2024-01-06T10:45:58;7.50;99.90
40816;DHT22;26535;48.788;9.214;2024-01-06T10:48:26;7.50;99.90
40816;DHT22;26535;48.788;9.214;2024-01-06T10:50:52;7.60;99.90
40816;DHT22;26535;48.788;9.214;2024-01-06T10:53:20;7.50;99.90
40816;DHT22;26535;48.788;9.214;2024-01-06T10:55:49;7.50;99.90
40816;DHT22;26535;48.788;9.214;2024-01-06T10:58:17;7.50;99.90
40816;DHT22;26535;48.788;9.214;2024-01-06T11:00:43;7.60;99.90
40816;DHT22;26535;48.788;9.214;2024-01-06T11:03:09;7.40;99.90
40816;DHT22;26535;48.788;9.214;2024-01-06T11:05:36;7.40;99.90
40816;DHT22;26535;48.788;9.214;2024-01-06T11:08:04;7.50;99.90
40816;DHT22;26535;48.788;9.214;2024-01-06T11:10:31;7.40;99.90
40816;DHT22;26535;48.788;9.214;2024-01-06T11:13:15;7.40;99.90
40816;DHT22;26535;48.788;9.214;2024-01-06T11:15:52;7.40;99.90
40816;DHT22;26535;48.788;9.214;2024-01-06T11:18:38;7.40;99.90
40816;DHT22;26535;48.788;9.214;2024-01-06T11:21:22;7.40;99.90
40816;DHT22;26535;48.788;9.214;2024-01-06T11:24:15;7.40;99.90
40816;DHT22;26535;48.788;9.214;2024-01-06T11:26:58;7.40;99.90
40816;DHT22;26535;48.788;9.214;2024-01-06T11:29:30;7.50;99.90
40816;DHT22;26535;48.788;9.214;2024-01-06T11:32:24;7.50;99.90
40816;DHT22;26535;48.788;9.214;2024-01-06T11:34:51;7.50;99.90
40816;DHT22;26535;48.788;9.214;2024-01-06T11:38:06;7.40;99.90
40816;DHT22;26535;48.788;9.214;2024-01-06T11:40:41;7.40;99.90
40816;DHT22;26535;48.788;9.214;2024-01-06T11:43:11;7.40;99.90
40816;DHT22;26535;48.788;9.214;2024-01-06T11:45:40;7.40;99.90
40816;DHT22;26535;48.788;9.214;2024-01-06T11:48:11;7.40;99.90
40816;DHT22;26535;48.788;9.214;2024-01-06T11:50:38;7.40;99.90
40816;DHT22;26535;48.788;9.214;2024-01-06T11:53:05;7.40;99.90
40816;DHT22;26535;48.788;9.214;2024-01-06T11:55:31;7.40;99.90
40816;DHT22;26535;48.788;9.214;2024-01-06T11:57:58;7.30;99.90
40816;DHT22;26535;48.788;9.214;2024-01-06T12:00:28;7.20;99.90
40816;DHT22;26535;48.788;9.214;2024-01-06T12:02:57;7.20;99.90
40816;DHT22;26535;48.788;9.214;2024-01-06T12:05:23;7.20;99.90
40816;DHT22;26535;48.788;9.214;2024-01-06T12:07:59;7.30;99.90
40816;DHT22;26535;48.788;9.214;2024-01-06T12:10:27;7.20;99.90
40816;DHT22;26535;48.788;9.214;2024-01-06T12:13:01;7.20;99.90
40816;DHT22;26535;48.788;9.214;2024-01-06T12:15:29;7.30;99.90
40816;DHT22;26535;48.788;9.214;2024-01-06T12:17:56;7.30;99.90
40816;DHT22;26535;48.788;9.214;2024-01-06T12:20:22;7.20;99.90
40816;DHT22;26535;48.788;9.214;2024-01-06T12:22:55;7.20;99.90
40816;DHT22;26535;48.788;9.214;2024-01-06T12:25:22;7.10;99.90
40816;DHT22;26535;48.788;9.214;2024-01-06T12:27:48;7.10;99.90
40816;DHT22;26535;48.788;9.214;2024-01-06T12:30:15;7.10;99.90
40816;DHT22;26535;48.788;9.214;2024-01-06T12:32:46;7.00;99.90
40816;DHT22;26535;48.788;9.214;2024-01-06T12:35:12;6.90;99.90
40816;DHT22;26535;48.788;9.214;2024-01-06T12:37:39;6.90;99.90
40816;DHT22;26535;48.788;9.214;2024-01-06T12:40:09;7.00;99.90
40816;DHT22;26535;48.788;9.214;2024-01-06T12:42:35;6.90;99.90
40816;DHT22;26535;48.788;9.214;2024-01-06T12:45:01;7.00;99.90
40816;DHT22;26535;48.788;9.214;2024-01-06T12:47:30;7.10;99.90
40816;DHT22;26535;48.788;9.214;2024-01-06T12:49:56;7.00;99.90
40816;DHT22;26535;48.788;9.214;2024-01-06T12:52:22;7.10;99.90
40816;DHT22;26535;48.788;9.214;2024-01-06T12:54:48;7.10;99.90
40816;DHT22;26535;48.788;9.214;2024-01-06T12:57:13;7.10;99.90
40816;DHT22;26535;48.788;9.214;2024-01-06T12:59:39;7.10;99.90
40816;DHT22;26535;48.788;9.214;2024-01-06T13:02:05;7.10;99.90
40816;DHT22;26535;48.788;9.214;2024-01-06T13:04:31;7.10;99.90
40816;DHT22;26535;48.788;9.214;2024-01-06T13:06:57;7.00;99.90
40816;DHT22;26535;48.788;9.214;2024-01-06T13:09:22;7.00;99.90
40816;DHT22;26535;48.788;9.214;2024-01-06T13:11:49;6.90;99.90
40816;DHT22;26535;48.788;9.214;2024-01-06T13:14:16;6.90;99.90
40816;DHT22;26535;48.788;9.214;2024-01-06T13:16:42;6.80;99.90
40816;DHT22;26535;48.788;9.214;2024-01-06T13:19:08;6.80;99.90
40816;DHT22;26535;48.788;9.214;2024-01-06T13:21:33;6.90;99.90
40816;DHT22;26535;48.788;9.214;2024-01-06T13:24:01;6.80;99.90
40816;DHT22;26535;48.788;9.214;2024-01-06T13:26:28;6.70;99.90
40816;DHT22;26535;48.788;9.214;2024-01-06T13:28:54;6.70;99.90
40816;DHT22;26535;48.788;9.214;2024-01-06T13:31:19;6.70;99.90
40816;DHT22;26535;48.788;9.214;2024-01-06T13:33:46;6.60;99.90
40816;DHT22;26535;48.788;9.214;2024-01-06T13:36:12;6.60;99.90
40816;DHT22;26535;48.788;9.214;2024-01-06T13:38:38;6.60;99.90
40816;DHT22;26535;48.788;9.214;2024-01-06T13:41:04;6.60;99.90
40816;DHT22;26535;48.788;9.214;2024-01-06T13:43:30;6.60;99.90
40816;DHT22;26535;48.788;9.214;2024-01-06T13:45:57;6.70;99.90
40816;DHT22;26535;48.788;9.214;2024-01-06T13:48:23;6.60;99.90
40816;DHT22;26535;48.788;9.214;2024-01-06T13:50:49;6.60;99.90
40816;DHT22;26535;48.788;9.214;2024-01-06T13:53:15;6.50;99.90
40816;DHT22;26535;48.788;9.214;2024-01-06T13:55:41;6.50;99.90
40816;DHT22;26535;48.788;9.214;2024-01-06T13:58:07;6.60;99.90
40816;DHT22;26535;48.788;9.214;2024-01-06T14:00:35;6.60;99.90
40816;DHT22;26535;48.788;9.214;2024-01-06T14:03:01;6.60;99.90
40816;DHT22;26535;48.788;9.214;2024-01-06T14:05:27;6.60;99.90
40816;DHT22;26535;48.788;9.214;2024-01-06T14:07:54;6.50;99.90
40816;DHT22;26535;48.788;9.214;2024-01-06T14:10:19;6.50;99.90
40816;DHT22;26535;48.788;9.214;2024-01-06T14:12:45;6.50;99.90
40816;DHT22;26535;48.788;9.214;2024-01-06T14:15:11;6.40;99.90
40816;DHT22;26535;48.788;9.214;2024-01-06T14:17:38;6.40;99.90
40816;DHT22;26535;48.788;9.214;2024-01-06T14:20:05;6.40;99.90
40816;DHT22;26535;48.788;9.214;2024-01-06T14:22:31;6.30;99.90
40816;DHT22;26535;48.788;9.214;2024-01-06T14:24:56;6.40;99.90
40816;DHT22;26535;48.788;9.214;2024-01-06T14:27:31;6.30;99.90
40816;DHT22;26535;48.788;9.214;2024-01-06T14:29:57;6.30;99.90
40816;DHT22;26535;48.788;9.214;2024-01-06T14:32:22;6.30;99.90
40816;DHT22;26535;48.788;9.214;2024-01-06T14:34:50;6.30;99.90
40816;DHT22;26535;48.788;9.214;2024-01-06T14:37:18;6.30;99.90
40816;DHT22;26535;48.788;9.214;2024-01-06T14:39:44;6.40;99.90
40816;DHT22;26535;48.788;9.214;2024-01-06T14:42:10;6.30;99.90
40816;DHT22;26535;48.788;9.214;2024-01-06T14:44:36;6.20;99.90
40816;DHT22;26535;48.788;9.214;2024-01-06T14:47:02;6.20;99.90
40816;DHT22;26535;48.788;9.214;2024-01-06T14:49:28;6.20;99.90
40816;DHT22;26535;48.788;9.214;2024-01-06T14:51:53;6.20;99.90
40816;DHT22;26535;48.788;9.214;2024-01-06T14:54:19;6.20;99.90
40816;DHT22;26535;48.788;9.214;2024-01-06T14:56:44;6.10;99.90
40816;DHT22;26535;48.788;9.214;2024-01-06T14:59:11;6.20;99.90
40816;DHT22;26535;48.788;9.214;2024-01-06T15:01:37;6.10;99.90
40816;DHT22;26535;48.788;9.214;2024-01-06T15:04:03;6.20;99.90
40816;DHT22;26535;48.788;9.214;2024-01-06T15:06:29;6.20;99.90
40816;DHT22;26535;48.788;9.214;2024-01-06T15:08:55;6.20;99.90
40816;DHT22;26535;48.788;9.214;2024-01-06T15:11:20;6.20;99.90
40816;DHT22;26535;48.788;9.214;2024-01-06T15:13:46;6.20;99.90
40816;DHT22;26535;48.788;9.214;2024-01-06T15:16:12;6.20;99.90
40816;DHT22;26535;48.788;9.214;2024-01-06T15:18:37;6.10;99.90
40816;DHT22;26535;48.788;9.214;2024-01-06T15:21:03;6.10;99.90
40816;DHT22;26535;48.788;9.214;2024-01-06T15:23:29;6.10;99.90
40816;DHT22;26535;48.788;9.214;2024-01-06T15:25:54;6.10;99.90
40816;DHT22;26535;48.788;9.214;2024-01-06T15:28:20;6.10;99.90
40816;DHT22;26535;48.788;9.214;2024-01-06T15:30:46;6.10;99.90
40816;DHT22;26535;48.788;9.214;2024-01-06T15:33:12;6.00;99.90
40816;DHT22;26535;48.788;9.214;2024-01-06T15:35:46;6.10;99.90
40816;DHT22;26535;48.788;9.214;2024-01-06T15:38:11;6.10;99.90
40816;DHT22;26535;48.788;9.214;2024-01-06T15:40:37;6.10;99.90
40816;DHT22;26535;48.788;9.214;2024-01-06T15:43:03;6.10;99.90